Time;durP1;ratioP1;P1;durP2;ratioP2;P2;SDS_P1;SDS_P2;PMS_P1;PMS_P2;Temp;Humidity;BMP_temperature;BMP_pressure;BME280_temperature;BME280_humidity;BME280_pressure;Samples;Min_cycle;Max_cycle;Signal;HPM_P1;HPM_P2
2022/07/28 00:04:32;;;;;;;6.32;1.35;;;;;;;13.78;58.95;100851.69;10223546;29;20047;-77
2022/07/28 00:09:34;;;;;;;3.25;1.08;;;;;;;13.77;58.72;100852.69;10214437;29;20497;-77
2022/07/28 00:14:37;;;;;;;4.90;1.42;;;;;;;13.74;58.80;100858.34;10217896;29;20043;-77
2022/07/28 00:19:42;;;;;;;4.78;1.52;;;;;;;13.71;58.92;100862.16;10231616;29;20095;-77
2022/07/28 00:24:45;;;;;;;2.97;1.13;;;;;;;13.67;59.45;100858.00;10213434;29;20099;-78
2022/07/28 00:29:51;;;;;;;4.03;1.40;;;;;;;13.48;59.58;100864.13;10214276;29;20043;-77
2022/07/28 00:34:55;;;;;;;3.10;1.20;;;;;;;13.42;60.00;100871.91;10231084;29;20083;-78
2022/07/28 00:39:58;;;;;;;6.13;1.45;;;;;;;13.32;59.99;100874.50;10230519;29;20047;-77
2022/07/28 00:45:01;;;;;;;4.47;1.30;;;;;;;13.29;60.63;100877.47;10228828;29;20051;-77
2022/07/28 00:50:06;;;;;;;5.28;1.33;;;;;;;13.17;60.55;100865.88;10228952;29;20044;-76
2022/07/28 00:55:10;;;;;;;5.45;1.50;;;;;;;12.92;61.31;100864.38;10228206;29;20044;-76
2022/07/28 01:00:13;;;;;;;3.80;1.45;;;;;;;12.93;61.35;100855.28;10227943;29;20515;-77
2022/07/28 01:05:18;;;;;;;4.00;1.48;;;;;;;12.90;61.45;100855.56;10227704;29;20134;-75
2022/07/28 01:10:52;;;;;;;7.03;1.45;;;;;;;12.79;61.93;100852.91;10227896;29;20074;-76
2022/07/28 01:16:01;;;;;;;3.67;1.45;;;;;;;12.80;61.83;100846.50;10232394;29;20056;-76
2022/07/28 01:21:10;;;;;;;5.93;1.23;;;;;;;12.73;61.89;100850.72;10241517;29;20107;-77
2022/07/28 01:26:33;;;;;;;4.00;1.30;;;;;;;12.70;62.20;100843.75;10234221;29;20134;-77
2022/07/28 01:31:40;;;;;;;4.88;1.08;;;;;;;12.81;62.27;100845.56;10231306;29;20072;-78
2022/07/28 01:36:46;;;;;;;3.42;1.25;;;;;;;12.75;62.16;100837.94;10231463;29;20486;-77
2022/07/28 01:41:51;;;;;;;3.08;1.35;;;;;;;12.75;62.28;100837.94;10231156;29;20111;-76
2022/07/28 01:46:58;;;;;;;5.60;1.70;;;;;;;12.56;62.39;100834.09;10229718;29;20194;-78
2022/07/28 01:52:02;;;;;;;5.05;1.50;;;;;;;12.32;63.25;100842.34;10229146;29;20099;-75
2022/07/28 01:57:08;;;;;;;6.72;1.45;;;;;;;12.11;64.18;100839.50;10224914;29;20488;-76
2022/07/28 02:02:17;;;;;;;6.93;1.80;;;;;;;12.08;64.56;100837.06;10229109;29;20040;-76
2022/07/28 02:07:22;;;;;;;6.38;1.70;;;;;;;12.07;64.39;100835.38;10227711;29;20051;-77
2022/07/28 02:19:14;;;;;;;3.53;1.45;;;;;;;12.17;63.94;100825.53;10223131;29;20036;-76
2022/07/28 02:24:19;;;;;;;6.47;1.77;;;;;;;12.23;63.81;100826.91;10221641;29;20044;-77
2022/07/28 02:29:24;;;;;;;6.43;2.20;;;;;;;12.18;64.10;100818.34;10223628;29;20048;-76
2022/07/28 02:34:50;;;;;;;6.80;1.35;;;;;;;12.09;64.43;100822.59;10221619;29;20119;-77
2022/07/28 02:39:57;;;;;;;3.00;1.17;;;;;;;12.22;64.66;100825.19;10223413;29;20520;-78
2022/07/28 02:45:05;;;;;;;5.32;1.40;;;;;;;12.28;64.26;100830.09;10235549;29;20064;-77
2022/07/28 02:50:11;;;;;;;4.55;1.67;;;;;;;12.27;64.53;100822.97;10222313;29;20055;-77
2022/07/28 02:55:16;;;;;;;2.35;1.50;;;;;;;12.22;64.69;100825.19;10221409;29;20044;-78
2022/07/28 03:00:18;;;;;;;5.85;1.83;;;;;;;12.26;64.52;100828.47;10222701;29;20051;-78
2022/07/28 03:05:23;;;;;;;8.57;1.95;;;;;;;12.22;64.63;100827.88;10225046;29;20091;-77
2022/07/28 03:10:27;;;;;;;3.10;1.55;;;;;;;12.10;64.82;100828.88;10222423;29;20119;-77
2022/07/28 03:15:49;;;;;;;3.60;1.60;;;;;;;12.04;65.23;100838.31;10219909;29;20061;-78
2022/07/28 03:20:53;;;;;;;4.30;1.95;;;;;;;12.05;65.34;100839.16;10225194;29;20040;-76
2022/07/28 03:26:02;;;;;;;3.58;1.70;;;;;;;12.06;65.54;100846.25;10209835;29;20068;-77
2022/07/28 03:31:09;;;;;;;6.15;1.63;;;;;;;11.97;65.56;100837.06;10209515;29;20464;-77
2022/07/28 03:36:16;;;;;;;6.97;1.88;;;;;;;11.92;65.58;100836.56;10211649;29;20054;-77
2022/07/28 03:41:21;;;;;;;4.05;1.92;;;;;;;11.91;65.67;100841.13;10216468;29;20422;-77
2022/07/28 03:46:25;;;;;;;5.35;1.45;;;;;;;11.94;65.74;100845.41;10216020;29;20483;-76
2022/07/28 03:51:29;;;;;;;1.77;1.40;;;;;;;11.94;65.76;100834.63;10215705;29;20131;-77
2022/07/28 03:56:32;;;;;;;2.63;1.95;;;;;;;11.82;65.71;100843.66;10214812;29;20044;-78
2022/07/28 04:01:35;;;;;;;3.42;1.80;;;;;;;11.65;66.08;100859.28;10226083;29;20449;-78
2022/07/28 04:06:39;;;;;;;;;;;;;;;11.71;65.99;100866.03;10214003;29;20044;-78
2022/07/28 04:11:42;;;;;;;2.90;1.88;;;;;;;11.74;66.04;100857.75;10214310;29;19954;-78
2022/07/28 04:16:45;;;;;;;5.50;1.90;;;;;;;11.70;66.05;100853.56;10221163;29;20201;-77
2022/07/28 04:21:49;;;;;;;6.35;2.40;;;;;;;11.73;66.11;100851.47;10214150;29;20050;-77
2022/07/28 04:26:52;;;;;;;3.72;1.77;;;;;;;11.82;66.00;100840.97;10213171;29;20103;-78
2022/07/28 04:31:55;;;;;;;4.30;1.98;;;;;;;11.93;65.75;100846.38;10213675;29;20091;-78
2022/07/28 04:36:59;;;;;;;6.50;2.03;;;;;;;11.88;65.70;100841.34;10227809;29;20103;-78
2022/07/28 04:42:02;;;;;;;7.15;2.03;;;;;;;11.81;65.99;100839.28;10239614;29;20044;-76
2022/07/28 04:47:06;;;;;;;6.18;1.60;;;;;;;11.80;66.10;100846.50;10240266;29;20050;-78
2022/07/28 04:52:10;;;;;;;3.60;1.73;;;;;;;11.84;66.04;100839.03;10241681;29;20058;-76
2022/07/28 04:57:13;;;;;;;3.75;1.80;;;;;;;11.80;65.89;100837.56;10253657;29;20459;-77
2022/07/28 05:02:16;;;;;;;5.50;1.75;;;;;;;11.82;66.25;100833.78;10243494;29;20121;-77
2022/07/28 05:07:20;;;;;;;;;;;;;;;11.78;66.49;100836.81;10241400;29;20082;-77
2022/07/28 05:12:23;;;;;;;5.80;2.00;;;;;;;11.82;66.81;100832.91;10236275;29;19926;-78
2022/07/28 05:17:26;;;;;;;;;;;;;;;11.76;66.95;100847.69;10238790;29;20059;-78
2022/07/28 05:22:41;;;;;;;3.63;1.90;;;;;;;11.84;67.04;100841.72;10235811;29;19977;-77
2022/07/28 05:27:44;;;;;;;10.07;2.60;;;;;;;12.04;66.85;100846.38;10232872;29;20465;-78
2022/07/28 05:32:47;;;;;;;5.75;2.80;;;;;;;12.15;66.67;100850.91;10229002;29;20040;-77
2022/07/28 05:37:52;;;;;;;2.97;1.67;;;;;;;12.27;66.87;100846.38;10234522;29;20058;-78
2022/07/28 05:42:54;;;;;;;6.63;2.03;;;;;;;12.79;66.18;100840.28;10228428;29;20039;-76
2022/07/28 05:47:57;;;;;;;6.30;1.90;;;;;;;13.27;64.24;100842.53;10212646;29;20091;-76
2022/07/28 05:53:01;;;;;;;9.70;1.70;;;;;;;13.60;62.86;100845.16;10211000;29;20095;-76
2022/07/28 05:58:04;;;;;;;6.45;1.73;;;;;;;13.88;61.57;100858.00;10211127;29;20461;-76
2022/07/28 06:03:07;;;;;;;7.68;2.00;;;;;;;14.02;60.28;100843.28;10210986;29;20048;-77
2022/07/28 06:08:12;;;;;;;4.57;1.70;;;;;;;14.32;59.24;100849.66;10210916;29;20079;-76
2022/07/28 06:13:15;;;;;;;7.03;1.65;;;;;;;14.32;57.75;100847.78;10210519;29;20043;-76
2022/07/28 06:18:18;;;;;;;4.25;1.40;;;;;;;14.42;57.69;100860.50;10211113;29;20437;-77
2022/07/28 06:23:23;;;;;;;2.20;1.30;;;;;;;14.78;57.26;100859.00;10212258;29;20052;-77
2022/07/28 06:28:26;;;;;;;3.88;1.17;;;;;;;15.12;53.95;100862.16;10211273;29;20051;-77
2022/07/28 06:33:29;;;;;;;4.97;1.15;;;;;;;15.19;53.73;100866.03;10214274;29;20140;-75
2022/07/28 06:38:33;;;;;;;4.65;1.25;;;;;;;15.52;52.12;100852.19;10228709;29;20113;-75
2022/07/28 06:43:36;;;;;;;6.40;1.50;;;;;;;15.75;51.46;100850.03;10223253;29;20555;-78
2022/07/28 06:48:44;;;;;;;2.35;0.80;;;;;;;16.10;50.56;100861.00;11223837;23;20669;-77
2022/07/28 06:53:48;;;;;;;2.60;0.82;;;;;;;16.14;50.20;100857.00;10232811;28;20055;-78
2022/07/28 06:58:51;;;;;;;4.05;0.95;;;;;;;16.31;49.50;100859.94;10220990;29;20047;-78
2022/07/28 07:03:54;;;;;;;7.20;1.13;;;;;;;16.54;50.20;100863.97;10229024;29;20047;-76
2022/07/28 07:08:58;;;;;;;5.88;1.10;;;;;;;16.90;49.10;100857.75;10255705;28;20111;-77
2022/07/28 07:14:00;;;;;;;1.40;0.77;;;;;;;17.15;48.74;100854.28;10294076;28;20070;-77
2022/07/28 07:19:04;;;;;;;2.15;1.10;;;;;;;17.44;46.89;100851.31;10240161;28;20043;-77
2022/07/28 07:24:10;;;;;;;3.88;0.73;;;;;;;16.98;47.44;100847.81;10237183;28;20051;-77
2022/07/28 07:29:14;;;;;;;3.13;0.75;;;;;;;17.73;47.24;100839.25;10243561;28;20496;-78
2022/07/28 07:34:18;;;;;;;4.97;1.70;;;;;;;18.17;46.83;100841.06;10244050;28;20050;-78
2022/07/28 07:39:22;;;;;;;3.10;0.70;;;;;;;18.75;45.58;100821.19;10259501;28;20051;-75
2022/07/28 07:44:25;;;;;;;1.85;0.70;;;;;;;18.95;44.87;100830.78;10284682;28;20034;-76
2022/07/28 07:49:27;;;;;;;4.88;0.90;;;;;;;19.64;42.89;100820.41;10246035;28;20062;-78
2022/07/28 07:54:49;;;;;;;2.42;0.90;;;;;;;20.54;41.50;100822.81;10224091;28;20066;-77
2022/07/28 07:59:51;;;;;;;2.10;0.70;;;;;;;20.78;40.60;100819.06;10227404;28;20047;-77
2022/07/28 08:04:55;;;;;;;3.28;0.90;;;;;;;20.21;42.14;100818.50;10234816;28;20054;-77
2022/07/28 08:09:59;;;;;;;5.28;1.05;;;;;;;20.07;43.11;100820.09;10236058;28;20043;-78
2022/07/28 08:15:03;;;;;;;5.20;1.00;;;;;;;20.01;43.10;100815.34;10243147;28;20057;-77
2022/07/28 08:20:07;;;;;;;3.60;1.08;;;;;;;20.35;42.25;100817.81;10242411;28;20055;-77
2022/07/28 08:25:11;;;;;;;1.85;0.80;;;;;;;20.33;42.05;100817.13;10234772;28;20416;-77
2022/07/28 08:30:15;;;;;;;4.05;1.58;;;;;;;20.58;41.55;100806.09;10212810;28;20051;-77
2022/07/28 08:35:25;;;;;;;4.47;1.10;;;;;;;20.89;40.62;100814.22;10210911;28;20049;-77
2022/07/28 08:40:41;;;;;;;;;;;;;;;20.97;39.84;100808.69;10201525;28;20171;-77
2022/07/28 08:45:47;;;;;;;3.30;1.02;;;;;;;21.25;40.47;100802.69;10188883;29;20480;-78
2022/07/28 08:50:51;;;;;;;5.85;0.90;;;;;;;21.90;39.65;100802.06;10191919;28;20066;-77
2022/07/28 08:55:59;;;;;;;4.20;0.98;;;;;;;22.23;38.44;100796.19;10199005;28;20059;-77
2022/07/28 09:01:03;;;;;;;2.53;1.00;;;;;;;22.35;38.75;100800.09;10204798;28;20059;-76
2022/07/28 09:06:07;;;;;;;2.25;0.80;;;;;;;21.96;38.80;100793.09;10203135;28;20044;-77
2022/07/28 09:11:11;;;;;;;5.10;1.08;;;;;;;21.98;38.12;100798.38;10208305;28;20047;-77
2022/07/28 09:16:14;;;;;;;4.28;0.90;;;;;;;22.43;38.65;100791.81;10197786;28;20055;-77
2022/07/28 09:21:17;;;;;;;2.00;1.10;;;;;;;22.99;38.26;100780.19;10207688;28;20416;-77
2022/07/28 09:26:22;;;;;;;3.53;0.80;;;;;;;22.90;37.66;100789.56;10218581;28;20110;-77
2022/07/28 09:31:27;;;;;;;2.03;0.60;;;;;;;22.76;36.61;100780.38;10188952;28;20334;-77
2022/07/28 09:36:31;;;;;;;6.15;0.95;;;;;;;22.58;38.03;100780.00;10202239;28;20394;-78
2022/07/28 09:41:48;;;;;;;4.10;0.82;;;;;;;23.43;36.95;100773.63;10205554;28;20088;-77
2022/07/28 09:46:51;;;;;;;2.47;0.93;;;;;;;23.48;37.25;100776.63;10203245;28;20401;-77
2022/07/28 09:52:02;;;;;;;5.55;1.02;;;;;;;23.72;36.43;100769.81;10219445;28;20161;-77
2022/07/28 09:57:10;;;;;;;5.40;1.02;;;;;;;23.58;35.32;100766.13;10219077;28;20044;-77
2022/07/28 10:02:22;;;;;;;4.03;1.15;;;;;;;24.15;35.57;100766.91;10204091;28;20049;-78
2022/07/28 10:07:28;;;;;;;5.15;1.25;;;;;;;24.39;35.59;100762.75;10198122;28;20047;-78
2022/07/28 10:12:35;;;;;;;2.40;0.90;;;;;;;24.84;35.54;100762.25;10201300;28;20124;-79
2022/07/28 10:17:38;;;;;;;1.85;0.85;;;;;;;24.97;34.66;100745.78;10210686;28;20051;-79
2022/07/28 10:22:42;;;;;;;3.80;1.00;;;;;;;24.78;34.24;100754.84;10203584;28;20059;-77
2022/07/28 10:27:48;;;;;;;2.95;0.80;;;;;;;24.58;34.81;100747.44;10202176;28;20048;-79
2022/07/28 10:32:54;;;;;;;3.78;0.75;;;;;;;24.29;34.52;100738.44;10224424;28;20614;-79
2022/07/28 10:38:00;;;;;;;3.08;1.10;;;;;;;24.28;34.55;100738.66;10215389;28;20129;-78
2022/07/28 10:43:05;;;;;;;2.78;1.10;;;;;;;24.86;34.91;100721.69;10239990;28;20047;-77
2022/07/28 10:48:09;;;;;;;3.92;0.95;;;;;;;25.34;33.61;100722.34;10228236;28;20047;-78
2022/07/28 10:53:23;;;;;;;2.80;0.70;;;;;;;26.10;32.68;100708.97;10197935;28;20095;-77
2022/07/28 10:58:40;;;;;;;2.20;1.10;;;;;;;26.26;32.38;100712.09;10201004;28;20051;-78
2022/07/28 11:03:46;;;;;;;6.10;0.98;;;;;;;26.59;31.88;100710.22;10203824;28;20604;-80
2022/07/28 11:08:51;;;;;;;6.78;2.03;;;;;;;26.45;32.13;100713.03;10202823;28;20050;-78
2022/07/28 11:14:35;;;;;;;6.57;0.82;;;;;;;26.26;33.33;100698.34;10201509;28;20098;-78
2022/07/28 11:19:51;;;;;;;2.63;0.80;;;;;;;26.70;31.20;100699.31;10192465;29;20127;-79
2022/07/28 11:25:16;;;;;;;2.38;0.93;;;;;;;26.36;32.14;100691.53;10196794;28;21280;-78
2022/07/28 11:30:56;;;;;;;4.57;1.17;;;;;;;26.55;31.14;100682.28;10199735;28;20055;-79
2022/07/28 11:36:00;;;;;;;8.32;1.15;;;;;;;25.62;32.47;100674.44;10196852;28;20083;-78
2022/07/28 11:41:28;;;;;;;2.92;0.93;;;;;;;25.46;33.82;100683.19;10201924;28;20587;-77
2022/07/28 11:46:36;;;;;;;3.95;0.90;;;;;;;26.88;31.22;100678.44;10211580;28;20218;-78
2022/07/28 11:51:40;;;;;;;3.03;0.98;;;;;;;27.68;30.33;100667.44;10195106;28;20051;-78
2022/07/28 11:56:58;;;;;;;5.50;1.20;;;;;;;28.27;30.18;100670.47;10197397;28;20622;-79
2022/07/28 12:02:02;;;;;;;1.75;0.88;;;;;;;28.96;29.27;100659.81;10214178;28;20058;-78
2022/07/28 12:07:07;;;;;;;2.92;0.90;;;;;;;29.44;28.77;100653.22;10208507;28;20070;-78
2022/07/28 12:12:11;;;;;;;3.15;1.20;;;;;;;28.11;30.04;100657.34;10199331;28;21351;-79
2022/07/28 12:17:15;;;;;;;6.40;1.15;;;;;;;28.08;29.29;100661.41;10199429;28;20062;-77
2022/07/28 12:22:18;;;;;;;1.98;0.98;;;;;;;28.99;28.42;100650.19;10214978;28;20678;-77
2022/07/28 12:27:26;;;;;;;3.28;0.90;;;;;;;29.48;26.21;100634.19;10197439;28;20173;-78
2022/07/28 12:32:41;;;;;;;3.20;1.10;;;;;;;29.36;28.66;100640.59;10210607;28;20544;-79
2022/07/28 12:37:46;;;;;;;2.20;1.10;;;;;;;30.50;26.94;100629.81;10213440;28;20579;-79
2022/07/28 12:42:55;;;;;;;2.75;0.98;;;;;;;30.68;26.65;100632.38;10206315;28;20094;-78
2022/07/28 12:48:07;;;;;;;3.13;1.25;;;;;;;29.09;27.80;100631.13;10201433;28;20067;-79
2022/07/28 12:53:11;;;;;;;2.85;0.90;;;;;;;27.74;29.76;100638.06;10203028;28;20079;-79
2022/07/28 12:58:23;;;;;;;3.70;1.30;;;;;;;27.33;29.93;100634.06;10202258;28;20044;-78
2022/07/28 13:03:29;;;;;;;3.03;1.25;;;;;;;28.98;28.61;100612.59;10197296;28;20058;-79
2022/07/28 13:08:40;;;;;;;4.55;1.58;;;;;;;29.74;27.92;100607.91;10210006;28;20039;-78
2022/07/28 13:13:47;;;;;;;4.70;0.98;;;;;;;30.20;27.61;100608.81;10195808;28;20059;-78
2022/07/28 13:18:53;;;;;;;2.30;1.77;;;;;;;30.01;27.36;100599.84;10201800;28;20058;-78
2022/07/28 13:23:56;;;;;;;2.97;1.30;;;;;;;29.18;28.49;100576.28;10198235;28;20090;-79
2022/07/28 13:29:00;;;;;;;1.15;0.93;;;;;;;29.41;27.74;100600.31;10203855;28;20051;-77
2022/07/28 13:34:05;;;;;;;4.63;1.20;;;;;;;30.45;26.65;100586.25;10199546;28;20059;-78
2022/07/28 13:39:10;;;;;;;2.10;1.33;;;;;;;31.07;26.08;100575.00;10198828;28;20537;-78
2022/07/28 13:44:13;;;;;;;2.40;1.33;;;;;;;31.32;25.66;100576.47;10224591;28;20039;-77
2022/07/28 13:49:17;;;;;;;4.63;1.60;;;;;;;31.13;25.84;100574.00;10231493;28;20065;-78
2022/07/28 13:54:23;;;;;;;3.05;1.33;;;;;;;30.75;25.29;100565.69;10212364;28;20750;-78
2022/07/28 13:59:28;;;;;;;2.28;1.00;;;;;;;30.45;25.10;100566.84;10201057;28;20085;-79
2022/07/28 14:04:32;;;;;;;3.28;1.30;;;;;;;29.17;27.82;100555.25;10202362;28;20047;-77
2022/07/28 14:09:35;;;;;;;6.00;1.40;;;;;;;29.64;27.85;100557.91;10231014;28;20098;-77
2022/07/28 14:14:41;;;;;;;3.15;1.20;;;;;;;30.61;26.85;100551.31;10225448;28;20062;-77
2022/07/28 14:19:51;;;;;;;3.33;1.10;;;;;;;30.86;25.12;100539.78;10237543;28;20054;-78
2022/07/28 14:24:54;;;;;;;5.53;1.27;;;;;;;30.25;25.60;100547.94;10222216;28;20059;-79
2022/07/28 14:29:57;;;;;;;4.40;1.20;;;;;;;30.06;25.66;100539.03;10200626;28;20114;-77
2022/07/28 14:35:01;;;;;;;2.38;1.30;;;;;;;29.17;26.06;100545.03;10204637;28;20093;-77
2022/07/28 14:40:06;;;;;;;4.40;1.58;;;;;;;28.35;26.70;100534.81;10207394;28;20051;-78
2022/07/28 14:45:09;;;;;;;7.78;2.65;;;;;;;28.98;27.89;100532.41;10219895;28;20133;-78
2022/07/28 14:50:13;;;;;;;8.07;1.27;;;;;;;29.53;28.31;100535.53;10227705;28;20050;-78
2022/07/28 14:55:16;;;;;;;4.55;1.10;;;;;;;29.77;27.34;100535.44;10234144;28;20082;-78
2022/07/28 15:00:20;;;;;;;2.13;0.93;;;;;;;29.17;26.95;100525.66;10231269;28;20727;-78
2022/07/28 15:05:24;;;;;;;7.85;1.25;;;;;;;28.93;27.76;100522.06;10231828;28;20520;-78
2022/07/28 15:10:27;;;;;;;1.30;0.80;;;;;;;29.00;28.05;100522.78;10227003;28;20539;-78
2022/07/28 15:15:30;;;;;;;3.85;1.20;;;;;;;28.99;28.15;100517.50;10223129;28;20106;-78
2022/07/28 15:20:38;;;;;;;1.95;1.00;;;;;;;29.16;27.39;100518.47;10226986;28;20051;-77
2022/07/28 15:25:42;;;;;;;2.40;1.40;;;;;;;28.96;29.24;100518.81;10219859;28;20051;-77
2022/07/28 15:30:50;;;;;;;5.80;1.20;;;;;;;28.41;28.27;100516.44;10190269;28;20059;-77
2022/07/28 15:35:58;;;;;;;1.42;0.90;;;;;;;28.71;28.42;100522.69;10206002;28;20058;-77
2022/07/28 15:41:01;;;;;;;1.67;1.00;;;;;;;28.04;28.78;100511.97;10195691;28;20047;-78
2022/07/28 15:46:08;;;;;;;5.53;1.13;;;;;;;28.07;28.86;100512.56;10203622;28;20122;-78
2022/07/28 15:51:12;;;;;;;3.08;1.00;;;;;;;27.90;28.76;100499.41;10210665;28;20059;-77
2022/07/28 15:56:15;;;;;;;3.53;1.48;;;;;;;28.01;28.68;100501.38;10201938;28;20056;-77
2022/07/28 16:01:18;;;;;;;4.80;1.40;;;;;;;28.18;28.71;100503.47;10201319;28;20047;-77
2022/07/28 16:06:22;;;;;;;3.75;1.40;;;;;;;27.69;28.67;100494.44;10239436;28;20051;-77
2022/07/28 16:11:25;;;;;;;4.13;1.38;;;;;;;27.97;28.95;100491.06;10238729;28;20043;-76
2022/07/28 16:16:28;;;;;;;7.55;1.48;;;;;;;27.40;29.58;100488.72;10235028;28;20129;-76
2022/07/28 16:21:32;;;;;;;5.57;1.58;;;;;;;28.07;29.11;100483.03;10232134;28;20649;-77
2022/07/28 16:26:35;;;;;;;4.03;1.45;;;;;;;28.38;28.03;100483.78;10222080;28;20046;-78
2022/07/28 16:31:39;;;;;;;4.43;1.40;;;;;;;28.43;28.16;100476.44;10235989;28;20070;-77
2022/07/28 16:36:48;;;;;;;6.63;1.33;;;;;;;28.03;28.46;100479.91;10225378;28;20054;-77
2022/07/28 16:41:52;;;;;;;5.18;1.58;;;;;;;27.70;29.49;100476.78;10243980;28;20128;-77
2022/07/28 16:46:59;;;;;;;5.43;1.20;;;;;;;27.00;29.09;100460.78;10222946;28;20501;-77
2022/07/28 16:52:03;;;;;;;4.22;1.52;;;;;;;27.07;29.49;100472.56;10235379;28;20077;-77
2022/07/28 16:57:06;;;;;;;6.72;1.60;;;;;;;27.28;29.20;100469.31;10237332;28;20113;-78
2022/07/28 17:02:09;;;;;;;7.63;1.33;;;;;;;29.61;26.65;100459.59;10232229;28;20055;-77
2022/07/28 17:07:14;;;;;;;5.05;1.58;;;;;;;32.33;24.79;100448.06;10198152;28;20055;-78
2022/07/28 17:12:17;;;;;;;3.97;1.15;;;;;;;33.87;22.84;100455.06;10195051;28;21266;-78
2022/07/28 17:17:20;;;;;;;4.05;1.00;;;;;;;32.71;23.00;100456.38;10203810;28;20097;-77
2022/07/28 17:22:24;;;;;;;2.67;1.20;;;;;;;32.30;23.82;100453.34;10192971;28;20048;-77
2022/07/28 17:27:27;;;;;;;7.40;1.75;;;;;;;32.18;23.34;100451.59;10193420;28;20134;-77
2022/07/28 17:32:41;;;;;;;6.28;1.40;;;;;;;32.42;23.05;100448.44;10205995;28;20062;-78
2022/07/28 17:37:45;;;;;;;2.42;1.00;;;;;;;32.88;22.62;100455.09;10193582;28;20079;-77
2022/07/28 17:42:48;;;;;;;4.15;1.27;;;;;;;31.36;24.52;100461.09;10205733;28;20051;-77
2022/07/28 17:47:51;;;;;;;5.90;1.25;;;;;;;29.56;26.03;100457.53;10196990;28;21284;-78
2022/07/28 17:52:56;;;;;;;6.82;1.33;;;;;;;27.09;28.67;100464.91;10242325;28;20567;-77
2022/07/28 17:58:09;;;;;;;3.00;1.00;;;;;;;26.67;29.95;100471.09;10241562;28;20055;-77
2022/07/28 18:03:12;;;;;;;4.05;1.15;;;;;;;26.39;29.73;100468.84;10200798;28;20047;-77
2022/07/28 18:08:17;;;;;;;5.07;1.42;;;;;;;25.53;31.25;100473.06;10241042;28;20562;-77
2022/07/28 18:13:20;;;;;;;6.00;3.10;;;;;;;24.39;32.59;100471.78;10212837;28;20437;-78
2022/07/28 18:18:22;;;;;;;7.47;1.67;;;;;;;23.80;33.74;100462.50;10204709;28;20055;-78
2022/07/28 18:23:27;;;;;;;2.85;1.20;;;;;;;23.42;33.99;100465.78;10190464;28;20140;-78
2022/07/28 18:28:30;;;;;;;4.78;1.25;;;;;;;23.12;34.25;100469.91;10190863;28;20059;-78
2022/07/28 18:33:32;;;;;;;3.08;1.08;;;;;;;22.94;34.18;100471.28;10202665;28;20051;-77
2022/07/28 18:38:37;;;;;;;2.97;1.25;;;;;;;22.74;34.77;100468.44;10199048;28;20150;-76
2022/07/28 18:43:40;;;;;;;4.50;1.58;;;;;;;22.66;34.98;100465.88;10203752;28;21299;-77
2022/07/28 18:48:43;;;;;;;4.57;1.60;;;;;;;22.41;35.02;100459.16;10202444;28;20050;-79
2022/07/28 18:53:51;;;;;;;2.38;1.00;;;;;;;22.20;35.33;100462.81;10211207;28;20047;-79
2022/07/28 18:58:54;;;;;;;4.43;2.58;;;;;;;22.05;35.37;100465.59;10206050;28;20066;-79
2022/07/28 19:03:57;;;;;;;6.38;1.27;;;;;;;21.88;35.85;100465.88;10196927;28;21173;-78
2022/07/28 19:09:01;;;;;;;1.42;1.10;;;;;;;21.73;35.87;100464.25;10224735;28;20161;-78
2022/07/28 19:14:04;;;;;;;5.82;1.33;;;;;;;21.54;36.29;100472.06;10209910;28;20063;-78
2022/07/28 19:19:07;;;;;;;4.88;1.30;;;;;;;21.43;36.20;100473.41;10219330;28;20047;-78
2022/07/28 19:24:12;;;;;;;5.80;1.48;;;;;;;21.32;36.69;100484.84;10225965;28;20506;-77
2022/07/28 19:29:16;;;;;;;3.88;1.20;;;;;;;21.23;36.96;100483.28;10238055;28;20048;-79
2022/07/28 19:34:19;;;;;;;4.90;1.13;;;;;;;21.18;37.27;100492.06;10248677;28;20062;-79
2022/07/28 19:39:23;;;;;;;6.15;1.90;;;;;;;21.02;37.23;100493.06;10240471;28;20071;-79
2022/07/28 19:44:28;;;;;;;6.35;1.70;;;;;;;21.01;37.37;100504.22;10243904;28;20047;-78
2022/07/28 19:49:34;;;;;;;3.65;1.33;;;;;;;20.94;37.61;100506.00;10222946;28;20051;-78
2022/07/28 19:54:38;;;;;;;3.42;1.10;;;;;;;20.86;37.63;100514.28;10211266;28;20051;-79
2022/07/28 19:59:43;;;;;;;5.07;1.30;;;;;;;20.88;37.70;100521.25;10208430;28;20184;-77
2022/07/28 20:04:46;;;;;;;4.43;1.30;;;;;;;20.79;37.89;100527.84;10200366;28;20051;-78
2022/07/28 20:09:50;;;;;;;2.38;1.55;;;;;;;20.78;38.03;100529.69;10198207;28;20051;-77
2022/07/28 20:14:53;;;;;;;4.90;1.83;;;;;;;20.71;38.09;100525.22;10214111;28;20051;-79
2022/07/28 20:25:35;;;;;;;4.97;1.92;;;;;;;20.39;38.68;100510.84;10670893;23;20071;-80
2022/07/28 20:30:38;;;;;;;2.22;1.23;;;;;;;20.23;38.72;100521.88;10176368;29;20063;-78
2022/07/28 20:35:41;;;;;;;5.63;2.25;;;;;;;20.17;39.26;100526.22;10160288;29;20051;-77
2022/07/28 20:40:45;;;;;;;6.25;2.92;;;;;;;20.07;39.17;100523.72;10155753;28;20084;-77
2022/07/28 20:45:48;;;;;;;4.85;1.77;;;;;;;19.94;39.36;100531.69;10173067;29;20047;-79
2022/07/28 20:50:51;;;;;;;5.15;2.03;;;;;;;19.85;39.72;100525.41;10173322;29;21257;-78
2022/07/28 20:55:55;;;;;;;5.50;1.30;;;;;;;19.79;39.98;100526.16;10183199;29;20078;-78
2022/07/28 21:00:58;;;;;;;4.72;1.65;;;;;;;19.80;40.20;100532.44;10185690;29;21133;-79
2022/07/28 21:06:02;;;;;;;6.93;1.95;;;;;;;19.73;40.24;100537.78;10193639;29;20143;-78
2022/07/28 21:11:11;;;;;;;2.65;1.10;;;;;;;19.71;40.35;100548.00;10187187;29;20044;-78
2022/07/28 21:16:15;;;;;;;8.18;1.40;;;;;;;19.67;40.37;100542.09;10184743;29;21307;-77
2022/07/28 21:21:18;;;;;;;4.60;1.40;;;;;;;19.72;40.56;100551.59;10187122;29;20103;-78
2022/07/28 21:26:22;;;;;;;3.60;1.30;;;;;;;19.74;40.88;100552.25;10178818;29;20513;-77
2022/07/28 21:31:26;;;;;;;3.17;1.15;;;;;;;19.78;41.10;100553.63;10181665;29;20086;-78
2022/07/28 21:36:28;;;;;;;5.32;1.60;;;;;;;19.78;41.65;100559.06;10190525;29;20055;-78
2022/07/28 21:41:33;;;;;;;3.85;1.30;;;;;;;19.66;42.07;100554.03;10188606;29;20142;-78
2022/07/28 21:46:41;;;;;;;4.13;1.00;;;;;;;19.52;42.38;100556.63;10168970;29;20056;-75
2022/07/28 21:51:45;;;;;;;3.75;0.98;;;;;;;19.44;43.62;100568.41;10174596;29;20095;-78
2022/07/28 21:56:50;;;;;;;6.00;1.65;;;;;;;19.35;43.82;100564.03;10161623;29;20055;-78
2022/07/28 22:01:53;;;;;;;3.55;1.10;;;;;;;19.28;44.26;100563.91;10199962;29;20047;-79
2022/07/28 22:06:56;;;;;;;5.18;1.35;;;;;;;19.31;44.64;100565.41;10173638;29;20071;-78
2022/07/28 22:12:01;;;;;;;7.32;1.63;;;;;;;19.24;44.70;100571.56;10168193;29;20052;-79
2022/07/28 22:17:04;;;;;;;5.68;1.85;;;;;;;19.16;45.71;100570.75;10167971;29;20793;-76
2022/07/28 22:22:06;;;;;;;4.22;1.23;;;;;;;19.06;45.66;100565.53;10170247;29;20062;-79
2022/07/28 22:27:11;;;;;;;4.05;0.98;;;;;;;19.08;45.68;100568.06;10168678;29;20048;-77
2022/07/28 22:32:14;;;;;;;3.60;1.20;;;;;;;19.08;45.95;100577.06;10169438;29;20048;-79
2022/07/28 22:37:17;;;;;;;4.38;1.35;;;;;;;19.01;46.11;100576.94;10167426;29;20076;-79
2022/07/28 22:42:21;;;;;;;3.85;1.55;;;;;;;19.01;46.33;100581.53;10169496;29;20054;-78
2022/07/28 22:47:24;;;;;;;6.93;1.88;;;;;;;19.03;45.90;100584.91;10168295;29;20079;-79
2022/07/28 22:52:29;;;;;;;5.32;1.10;;;;;;;18.96;45.95;100590.22;10169434;29;20056;-77
2022/07/28 22:57:33;;;;;;;3.33;1.30;;;;;;;18.57;45.94;100587.38;10167913;29;21288;-79
2022/07/28 23:02:37;;;;;;;5.22;1.40;;;;;;;18.25;46.95;100591.78;10164012;29;20059;-79
2022/07/28 23:07:40;;;;;;;4.05;1.20;;;;;;;18.06;48.01;100590.25;10167032;29;20055;-80
2022/07/28 23:13:00;;;;;;;4.88;1.23;;;;;;;18.21;47.67;100585.00;10166203;29;21250;-79
2022/07/28 23:18:03;;;;;;;2.63;1.42;;;;;;;18.36;48.03;100579.72;10170316;29;20082;-80
2022/07/28 23:23:07;;;;;;;2.03;1.25;;;;;;;18.45;47.90;100569.69;10166862;29;20130;-80
2022/07/28 23:28:11;;;;;;;4.80;1.95;;;;;;;18.53;48.41;100569.69;10169114;29;20052;-75
2022/07/28 23:33:14;;;;;;;4.22;1.42;;;;;;;18.51;48.07;100560.84;10190037;29;20040;-74
2022/07/28 23:38:37;;;;;;;3.00;1.20;;;;;;;18.34;49.79;100579.88;10176929;29;20044;-78